sensor_id;sensor_type;location;lat;lon;timestamp;temperature;humidity
13998;DHT22;7074;51.508;7.018;2023-04-25T00:00:33;9.30;99.90
13998;DHT22;7074;51.508;7.018;2023-04-25T00:03:00;9.30;99.90
13998;DHT22;7074;51.508;7.018;2023-04-25T00:05:28;9.30;99.90
13998;DHT22;7074;51.508;7.018;2023-04-25T00:07:57;9.30;99.90
13998;DHT22;7074;51.508;7.018;2023-04-25T00:10:25;9.20;99.90
13998;DHT22;7074;51.508;7.018;2023-04-25T00:12:52;9.30;99.90
13998;DHT22;7074;51.508;7.018;2023-04-25T00:15:21;9.30;99.90
13998;DHT22;7074;51.508;7.018;2023-04-25T00:17:48;9.30;99.90
13998;DHT22;7074;51.508;7.018;2023-04-25T00:20:18;9.30;99.90
13998;DHT22;7074;51.508;7.018;2023-04-25T00:22:45;9.30;99.90
13998;DHT22;7074;51.508;7.018;2023-04-25T00:25:14;9.30;99.90
13998;DHT22;7074;51.508;7.018;2023-04-25T00:27:41;9.30;99.90
13998;DHT22;7074;51.508;7.018;2023-04-25T00:30:09;9.30;99.90
13998;DHT22;7074;51.508;7.018;2023-04-25T00:32:38;9.40;99.90
13998;DHT22;7074;51.508;7.018;2023-04-25T00:35:06;9.40;99.90
13998;DHT22;7074;51.508;7.018;2023-04-25T00:37:33;9.30;99.90
13998;DHT22;7074;51.508;7.018;2023-04-25T00:40:02;9.30;99.90
13998;DHT22;7074;51.508;7.018;2023-04-25T00:42:32;9.40;99.90
13998;DHT22;7074;51.508;7.018;2023-04-25T00:45:00;9.40;99.90
13998;DHT22;7074;51.508;7.018;2023-04-25T00:47:28;9.40;99.90
13998;DHT22;7074;51.508;7.018;2023-04-25T00:49:57;9.40;99.90
13998;DHT22;7074;51.508;7.018;2023-04-25T00:52:25;9.30;99.90
13998;DHT22;7074;51.508;7.018;2023-04-25T00:54:52;9.30;99.90
13998;DHT22;7074;51.508;7.018;2023-04-25T00:57:19;9.30;99.90
13998;DHT22;7074;51.508;7.018;2023-04-25T00:59:46;9.30;99.90
13998;DHT22;7074;51.508;7.018;2023-04-25T01:02:15;9.30;99.90
13998;DHT22;7074;51.508;7.018;2023-04-25T01:04:42;9.40;99.90
13998;DHT22;7074;51.508;7.018;2023-04-25T01:07:11;9.40;99.90
13998;DHT22;7074;51.508;7.018;2023-04-25T01:09:39;9.40;99.90
13998;DHT22;7074;51.508;7.018;2023-04-25T01:12:06;9.30;99.90
13998;DHT22;7074;51.508;7.018;2023-04-25T01:14:34;9.30;99.90
13998;DHT22;7074;51.508;7.018;2023-04-25T01:17:01;9.40;99.90
13998;DHT22;7074;51.508;7.018;2023-04-25T01:19:29;9.30;99.90
13998;DHT22;7074;51.508;7.018;2023-04-25T01:21:59;9.40;99.90
13998;DHT22;7074;51.508;7.018;2023-04-25T01:24:27;9.30;99.90
13998;DHT22;7074;51.508;7.018;2023-04-25T01:26:55;9.30;99.90
13998;DHT22;7074;51.508;7.018;2023-04-25T01:29:24;9.30;99.90
13998;DHT22;7074;51.508;7.018;2023-04-25T01:31:52;9.30;99.90
13998;DHT22;7074;51.508;7.018;2023-04-25T01:34:20;9.20;99.90
13998;DHT22;7074;51.508;7.018;2023-04-25T01:36:49;9.30;99.90
13998;DHT22;7074;51.508;7.018;2023-04-25T01:39:18;9.30;99.90
13998;DHT22;7074;51.508;7.018;2023-04-25T01:41:46;9.20;99.90
13998;DHT22;7074;51.508;7.018;2023-04-25T01:44:15;9.20;99.90
13998;DHT22;7074;51.508;7.018;2023-04-25T01:46:42;9.20;99.90
13998;DHT22;7074;51.508;7.018;2023-04-25T01:49:11;9.30;99.90
13998;DHT22;7074;51.508;7.018;2023-04-25T01:51:39;9.20;99.90
13998;DHT22;7074;51.508;7.018;2023-04-25T01:54:07;9.20;99.90
13998;DHT22;7074;51.508;7.018;2023-04-25T01:56:38;9.20;99.90
13998;DHT22;7074;51.508;7.018;2023-04-25T01:59:08;9.10;99.90
13998;DHT22;7074;51.508;7.018;2023-04-25T02:02:05;9.10;99.90
13998;DHT22;7074;51.508;7.018;2023-04-25T02:04:35;9.20;99.90
13998;DHT22;7074;51.508;7.018;2023-04-25T02:07:03;9.20;99.90
13998;DHT22;7074;51.508;7.018;2023-04-25T02:09:51;9.20;99.90
13998;DHT22;7074;51.508;7.018;2023-04-25T02:12:21;9.20;99.90
13998;DHT22;7074;51.508;7.018;2023-04-25T02:15:07;9.20;99.90
13998;DHT22;7074;51.508;7.018;2023-04-25T02:17:48;9.20;99.90
13998;DHT22;7074;51.508;7.018;2023-04-25T02:20:15;9.20;99.90
13998;DHT22;7074;51.508;7.018;2023-04-25T02:22:43;9.20;99.90
13998;DHT22;7074;51.508;7.018;2023-04-25T02:25:11;9.20;99.90
13998;DHT22;7074;51.508;7.018;2023-04-25T02:27:40;9.30;99.90
13998;DHT22;7074;51.508;7.018;2023-04-25T02:30:08;9.30;99.90
13998;DHT22;7074;51.508;7.018;2023-04-25T02:32:36;9.30;99.90
13998;DHT22;7074;51.508;7.018;2023-04-25T02:35:04;9.20;99.90
13998;DHT22;7074;51.508;7.018;2023-04-25T02:37:34;9.20;99.90
13998;DHT22;7074;51.508;7.018;2023-04-25T02:40:02;9.20;99.90
13998;DHT22;7074;51.508;7.018;2023-04-25T02:42:31;9.20;99.90
13998;DHT22;7074;51.508;7.018;2023-04-25T02:45:00;9.20;99.90
13998;DHT22;7074;51.508;7.018;2023-04-25T02:47:28;9.20;99.90
13998;DHT22;7074;51.508;7.018;2023-04-25T02:49:55;9.20;99.90
13998;DHT22;7074;51.508;7.018;2023-04-25T02:52:22;9.30;99.90
13998;DHT22;7074;51.508;7.018;2023-04-25T02:54:58;9.30;99.90
13998;DHT22;7074;51.508;7.018;2023-04-25T02:57:27;9.30;99.90
13998;DHT22;7074;51.508;7.018;2023-04-25T02:59:54;9.30;99.90
13998;DHT22;7074;51.508;7.018;2023-04-25T03:02:23;9.30;99.90
13998;DHT22;7074;51.508;7.018;2023-04-25T03:04:50;9.30;99.90
13998;DHT22;7074;51.508;7.018;2023-04-25T03:07:18;9.30;99.90
13998;DHT22;7074;51.508;7.018;2023-04-25T03:09:48;9.30;99.90
13998;DHT22;7074;51.508;7.018;2023-04-25T03:12:15;9.30;99.90
13998;DHT22;7074;51.508;7.018;2023-04-25T03:14:43;9.30;99.90
13998;DHT22;7074;51.508;7.018;2023-04-25T03:17:10;9.30;99.90
13998;DHT22;7074;51.508;7.018;2023-04-25T03:19:39;9.30;99.90
13998;DHT22;7074;51.508;7.018;2023-04-25T03:22:07;9.40;99.90
13998;DHT22;7074;51.508;7.018;2023-04-25T03:24:35;9.40;99.90
13998;DHT22;7074;51.508;7.018;2023-04-25T03:27:03;9.40;99.90
13998;DHT22;7074;51.508;7.018;2023-04-25T03:29:31;9.30;99.90
13998;DHT22;7074;51.508;7.018;2023-04-25T03:32:01;9.30;99.90
13998;DHT22;7074;51.508;7.018;2023-04-25T03:34:29;9.20;99.90
13998;DHT22;7074;51.508;7.018;2023-04-25T03:36:58;9.20;99.90
13998;DHT22;7074;51.508;7.018;2023-04-25T03:39:27;9.20;99.90
13998;DHT22;7074;51.508;7.018;2023-04-25T03:41:57;9.10;99.90
13998;DHT22;7074;51.508;7.018;2023-04-25T03:44:28;9.20;99.90
13998;DHT22;7074;51.508;7.018;2023-04-25T03:46:58;9.20;99.90
13998;DHT22;7074;51.508;7.018;2023-04-25T03:49:26;9.20;99.90
13998;DHT22;7074;51.508;7.018;2023-04-25T03:52:01;9.20;99.90
13998;DHT22;7074;51.508;7.018;2023-04-25T03:54:35;9.30;99.90
13998;DHT22;7074;51.508;7.018;2023-04-25T03:57:18;9.30;99.90
13998;DHT22;7074;51.508;7.018;2023-04-25T03:59:48;9.30;99.90
13998;DHT22;7074;51.508;7.018;2023-04-25T04:02:17;9.30;99.90
13998;DHT22;7074;51.508;7.018;2023-04-25T04:04:45;9.20;99.90
13998;DHT22;7074;51.508;7.018;2023-04-25T04:07:15;9.30;99.90
13998;DHT22;7074;51.508;7.018;2023-04-25T04:09:46;9.20;99.90
13998;DHT22;7074;51.508;7.018;2023-04-25T04:12:19;9.30;99.90
13998;DHT22;7074;51.508;7.018;2023-04-25T04:14:50;9.20;99.90
13998;DHT22;7074;51.508;7.018;2023-04-25T04:17:18;9.00;99.90
13998;DHT22;7074;51.508;7.018;2023-04-25T04:19:45;9.00;99.90
13998;DHT22;7074;51.508;7.018;2023-04-25T04:22:20;8.90;99.90
13998;DHT22;7074;51.508;7.018;2023-04-25T04:24:48;9.00;99.90
13998;DHT22;7074;51.508;7.018;2023-04-25T04:27:21;9.00;99.90
13998;DHT22;7074;51.508;7.018;2023-04-25T04:30:12;9.20;99.90
13998;DHT22;7074;51.508;7.018;2023-04-25T04:33:00;9.20;99.90
13998;DHT22;7074;51.508;7.018;2023-04-25T04:35:34;9.10;99.90
13998;DHT22;7074;51.508;7.018;2023-04-25T04:38:03;9.20;99.90
13998;DHT22;7074;51.508;7.018;2023-04-25T04:40:35;9.30;99.90
13998;DHT22;7074;51.508;7.018;2023-04-25T04:43:12;9.30;99.90
13998;DHT22;7074;51.508;7.018;2023-04-25T04:46:00;9.30;99.90
13998;DHT22;7074;51.508;7.018;2023-04-25T04:48:29;9.20;99.90
13998;DHT22;7074;51.508;7.018;2023-04-25T04:51:21;9.30;99.90
13998;DHT22;7074;51.508;7.018;2023-04-25T04:54:02;9.20;99.90
13998;DHT22;7074;51.508;7.018;2023-04-25T04:56:52;9.20;99.90
13998;DHT22;7074;51.508;7.018;2023-04-25T04:59:35;9.20;99.90
13998;DHT22;7074;51.508;7.018;2023-04-25T05:02:10;9.20;99.90
13998;DHT22;7074;51.508;7.018;2023-04-25T05:04:49;9.20;99.90
13998;DHT22;7074;51.508;7.018;2023-04-25T05:07:44;9.10;99.90
13998;DHT22;7074;51.508;7.018;2023-04-25T05:10:43;9.10;99.90
13998;DHT22;7074;51.508;7.018;2023-04-25T05:13:35;9.10;99.90
13998;DHT22;7074;51.508;7.018;2023-04-25T05:16:13;9.20;99.90
13998;DHT22;7074;51.508;7.018;2023-04-25T05:18:58;9.20;99.90
13998;DHT22;7074;51.508;7.018;2023-04-25T05:21:49;9.10;99.90
13998;DHT22;7074;51.508;7.018;2023-04-25T05:24:42;9.20;99.90
13998;DHT22;7074;51.508;7.018;2023-04-25T05:27:40;9.10;99.90
13998;DHT22;7074;51.508;7.018;2023-04-25T05:30:19;9.20;99.90
13998;DHT22;7074;51.508;7.018;2023-04-25T05:33:00;9.20;99.90
13998;DHT22;7074;51.508;7.018;2023-04-25T05:35:28;9.20;99.90
13998;DHT22;7074;51.508;7.018;2023-04-25T05:38:03;9.20;99.90
13998;DHT22;7074;51.508;7.018;2023-04-25T05:41:06;9.20;99.90
13998;DHT22;7074;51.508;7.018;2023-04-25T05:43:57;9.10;99.90
13998;DHT22;7074;51.508;7.018;2023-04-25T05:46:59;9.20;99.90
13998;DHT22;7074;51.508;7.018;2023-04-25T05:49:44;9.10;99.90
13998;DHT22;7074;51.508;7.018;2023-04-25T05:52:32;9.20;99.90
13998;DHT22;7074;51.508;7.018;2023-04-25T05:55:05;9.20;99.90
13998;DHT22;7074;51.508;7.018;2023-04-25T05:57:33;9.20;99.90
13998;DHT22;7074;51.508;7.018;2023-04-25T06:00:04;9.30;99.90
13998;DHT22;7074;51.508;7.018;2023-04-25T06:02:41;9.30;99.90
13998;DHT22;7074;51.508;7.018;2023-04-25T06:05:11;9.30;99.90
13998;DHT22;7074;51.508;7.018;2023-04-25T06:07:38;9.20;99.90
13998;DHT22;7074;51.508;7.018;2023-04-25T06:10:07;9.10;99.90
13998;DHT22;7074;51.508;7.018;2023-04-25T06:12:35;9.20;99.90
13998;DHT22;7074;51.508;7.018;2023-04-25T06:15:09;9.20;99.90
13998;DHT22;7074;51.508;7.018;2023-04-25T06:17:39;9.30;99.90
13998;DHT22;7074;51.508;7.018;2023-04-25T06:20:14;9.50;99.90
13998;DHT22;7074;51.508;7.018;2023-04-25T06:22:42;9.60;99.90
13998;DHT22;7074;51.508;7.018;2023-04-25T06:25:15;9.50;99.90
13998;DHT22;7074;51.508;7.018;2023-04-25T06:27:43;9.40;99.90
13998;DHT22;7074;51.508;7.018;2023-04-25T06:30:14;9.40;99.90
13998;DHT22;7074;51.508;7.018;2023-04-25T06:32:44;9.30;99.90
13998;DHT22;7074;51.508;7.018;2023-04-25T06:35:11;9.40;99.90
13998;DHT22;7074;51.508;7.018;2023-04-25T06:37:39;9.50;99.90
13998;DHT22;7074;51.508;7.018;2023-04-25T06:40:12;9.50;99.90
13998;DHT22;7074;51.508;7.018;2023-04-25T06:42:39;9.40;99.90
13998;DHT22;7074;51.508;7.018;2023-04-25T06:45:40;9.30;99.90
13998;DHT22;7074;51.508;7.018;2023-04-25T06:48:19;9.20;99.90
13998;DHT22;7074;51.508;7.018;2023-04-25T06:50:58;8.70;99.90
13998;DHT22;7074;51.508;7.018;2023-04-25T06:53:39;8.80;99.90
13998;DHT22;7074;51.508;7.018;2023-04-25T06:56:28;8.50;99.90
13998;DHT22;7074;51.508;7.018;2023-04-25T06:59:23;8.70;99.90
13998;DHT22;7074;51.508;7.018;2023-04-25T07:02:06;8.90;99.90
13998;DHT22;7074;51.508;7.018;2023-04-25T07:04:41;8.90;99.90
13998;DHT22;7074;51.508;7.018;2023-04-25T07:07:21;9.10;99.90
13998;DHT22;7074;51.508;7.018;2023-04-25T07:09:59;9.20;99.90
13998;DHT22;7074;51.508;7.018;2023-04-25T07:12:28;9.20;99.90
13998;DHT22;7074;51.508;7.018;2023-04-25T07:15:26;9.40;99.90
13998;DHT22;7074;51.508;7.018;2023-04-25T07:18:52;9.40;99.90
13998;DHT22;7074;51.508;7.018;2023-04-25T07:29:22;9.40;99.90
13998;DHT22;7074;51.508;7.018;2023-04-25T07:32:49;9.70;99.90
13998;DHT22;7074;51.508;7.018;2023-04-25T07:35:59;9.80;99.90
13998;DHT22;7074;51.508;7.018;2023-04-25T07:39:01;9.80;99.90
13998;DHT22;7074;51.508;7.018;2023-04-25T07:42:12;10.00;99.90
13998;DHT22;7074;51.508;7.018;2023-04-25T07:49:12;10.30;99.90
13998;DHT22;7074;51.508;7.018;2023-04-25T07:52:31;10.40;99.90
13998;DHT22;7074;51.508;7.018;2023-04-25T07:56:12;10.40;99.90
13998;DHT22;7074;51.508;7.018;2023-04-25T07:59:55;10.40;99.90
13998;DHT22;7074;51.508;7.018;2023-04-25T08:15:01;10.80;99.90
13998;DHT22;7074;51.508;7.018;2023-04-25T08:17:47;10.90;99.90
13998;DHT22;7074;51.508;7.018;2023-04-25T08:20:15;10.90;99.90
13998;DHT22;7074;51.508;7.018;2023-04-25T08:22:43;10.80;99.90
13998;DHT22;7074;51.508;7.018;2023-04-25T08:25:39;10.80;99.90
13998;DHT22;7074;51.508;7.018;2023-04-25T08:28:09;10.50;99.90
13998;DHT22;7074;51.508;7.018;2023-04-25T08:30:38;10.60;99.90
13998;DHT22;7074;51.508;7.018;2023-04-25T08:33:08;10.70;99.90
13998;DHT22;7074;51.508;7.018;2023-04-25T08:35:50;10.50;99.90
13998;DHT22;7074;51.508;7.018;2023-04-25T08:38:19;10.80;99.90
13998;DHT22;7074;51.508;7.018;2023-04-25T08:40:49;10.80;99.90
13998;DHT22;7074;51.508;7.018;2023-04-25T08:43:18;10.80;99.90
13998;DHT22;7074;51.508;7.018;2023-04-25T08:45:49;10.60;99.90
13998;DHT22;7074;51.508;7.018;2023-04-25T08:48:32;11.00;99.90
13998;DHT22;7074;51.508;7.018;2023-04-25T08:51:02;10.80;99.90
13998;DHT22;7074;51.508;7.018;2023-04-25T08:53:31;11.20;99.90
13998;DHT22;7074;51.508;7.018;2023-04-25T08:56:01;11.50;99.90
13998;DHT22;7074;51.508;7.018;2023-04-25T08:58:33;11.50;99.90
13998;DHT22;7074;51.508;7.018;2023-04-25T09:01:03;11.70;99.90
13998;DHT22;7074;51.508;7.018;2023-04-25T09:03:37;11.60;99.90
13998;DHT22;7074;51.508;7.018;2023-04-25T09:06:04;11.60;99.90
13998;DHT22;7074;51.508;7.018;2023-04-25T09:08:32;11.30;99.90
13998;DHT22;7074;51.508;7.018;2023-04-25T09:10:59;11.60;99.90
13998;DHT22;7074;51.508;7.018;2023-04-25T09:13:27;11.60;99.90
13998;DHT22;7074;51.508;7.018;2023-04-25T09:16:19;11.80;99.90
13998;DHT22;7074;51.508;7.018;2023-04-25T09:19:07;11.90;99.90
13998;DHT22;7074;51.508;7.018;2023-04-25T09:21:35;11.80;99.90
13998;DHT22;7074;51.508;7.018;2023-04-25T09:24:03;11.90;99.90
13998;DHT22;7074;51.508;7.018;2023-04-25T09:26:31;12.00;99.90
13998;DHT22;7074;51.508;7.018;2023-04-25T09:29:05;12.30;99.90
13998;DHT22;7074;51.508;7.018;2023-04-25T09:31:36;12.30;99.90
13998;DHT22;7074;51.508;7.018;2023-04-25T09:34:05;12.20;99.90
13998;DHT22;7074;51.508;7.018;2023-04-25T09:36:41;12.20;99.80
13998;DHT22;7074;51.508;7.018;2023-04-25T09:39:28;12.20;99.50
13998;DHT22;7074;51.508;7.018;2023-04-25T09:42:04;12.10;99.90
13998;DHT22;7074;51.508;7.018;2023-04-25T09:44:31;12.00;99.40
13998;DHT22;7074;51.508;7.018;2023-04-25T09:47:00;12.10;99.10
13998;DHT22;7074;51.508;7.018;2023-04-25T09:49:30;12.30;99.60
13998;DHT22;7074;51.508;7.018;2023-04-25T09:52:07;12.30;97.20
13998;DHT22;7074;51.508;7.018;2023-04-25T09:54:48;12.30;95.20
13998;DHT22;7074;51.508;7.018;2023-04-25T09:57:23;12.40;93.30
13998;DHT22;7074;51.508;7.018;2023-04-25T09:59:55;12.80;94.30
13998;DHT22;7074;51.508;7.018;2023-04-25T10:02:26;12.90;92.40
13998;DHT22;7074;51.508;7.018;2023-04-25T10:05:00;13.10;90.20
13998;DHT22;7074;51.508;7.018;2023-04-25T10:07:36;13.40;86.80
13998;DHT22;7074;51.508;7.018;2023-04-25T10:10:08;13.30;89.70
13998;DHT22;7074;51.508;7.018;2023-04-25T10:12:36;12.90;90.90
13998;DHT22;7074;51.508;7.018;2023-04-25T10:15:06;12.60;91.30
13998;DHT22;7074;51.508;7.018;2023-04-25T10:17:37;12.40;91.70
13998;DHT22;7074;51.508;7.018;2023-04-25T10:20:06;12.60;93.00
13998;DHT22;7074;51.508;7.018;2023-04-25T10:22:38;12.40;90.70
13998;DHT22;7074;51.508;7.018;2023-04-25T10:25:07;12.50;92.50
13998;DHT22;7074;51.508;7.018;2023-04-25T10:27:35;12.50;92.10
13998;DHT22;7074;51.508;7.018;2023-04-25T10:30:03;12.30;91.10
13998;DHT22;7074;51.508;7.018;2023-04-25T10:32:32;12.30;91.90
13998;DHT22;7074;51.508;7.018;2023-04-25T10:35:12;12.20;91.20
13998;DHT22;7074;51.508;7.018;2023-04-25T10:38:00;12.20;91.10
13998;DHT22;7074;51.508;7.018;2023-04-25T10:40:29;12.20;92.50
13998;DHT22;7074;51.508;7.018;2023-04-25T10:43:36;11.70;92.50
13998;DHT22;7074;51.508;7.018;2023-04-25T10:46:16;11.70;94.60
13998;DHT22;7074;51.508;7.018;2023-04-25T10:48:46;11.70;95.50
13998;DHT22;7074;51.508;7.018;2023-04-25T10:51:19;11.50;97.80
13998;DHT22;7074;51.508;7.018;2023-04-25T10:53:47;11.30;99.90
13998;DHT22;7074;51.508;7.018;2023-04-25T10:56:25;11.00;99.90
13998;DHT22;7074;51.508;7.018;2023-04-25T10:59:04;10.50;99.90
13998;DHT22;7074;51.508;7.018;2023-04-25T11:01:36;10.20;99.90
13998;DHT22;7074;51.508;7.018;2023-04-25T11:04:04;10.20;99.90
13998;DHT22;7074;51.508;7.018;2023-04-25T11:06:40;10.40;99.90
13998;DHT22;7074;51.508;7.018;2023-04-25T11:09:11;10.50;99.90
13998;DHT22;7074;51.508;7.018;2023-04-25T11:11:39;10.60;99.90
13998;DHT22;7074;51.508;7.018;2023-04-25T11:14:07;10.70;99.90
13998;DHT22;7074;51.508;7.018;2023-04-25T11:16:37;10.50;99.90
13998;DHT22;7074;51.508;7.018;2023-04-25T11:19:04;10.70;99.90
13998;DHT22;7074;51.508;7.018;2023-04-25T11:21:31;10.90;99.90
13998;DHT22;7074;51.508;7.018;2023-04-25T11:24:00;11.10;99.90
13998;DHT22;7074;51.508;7.018;2023-04-25T11:26:27;11.10;99.90
13998;DHT22;7074;51.508;7.018;2023-04-25T11:28:57;11.10;99.90
13998;DHT22;7074;51.508;7.018;2023-04-25T11:31:25;11.00;99.90
13998;DHT22;7074;51.508;7.018;2023-04-25T11:33:53;11.40;99.90
13998;DHT22;7074;51.508;7.018;2023-04-25T11:36:22;11.30;99.90
13998;DHT22;7074;51.508;7.018;2023-04-25T11:38:50;11.60;99.90
13998;DHT22;7074;51.508;7.018;2023-04-25T11:41:20;11.90;99.00
13998;DHT22;7074;51.508;7.018;2023-04-25T11:43:48;12.20;95.60
13998;DHT22;7074;51.508;7.018;2023-04-25T11:46:17;12.30;96.80
13998;DHT22;7074;51.508;7.018;2023-04-25T11:48:45;12.30;94.60
13998;DHT22;7074;51.508;7.018;2023-04-25T11:51:13;12.50;94.00
13998;DHT22;7074;51.508;7.018;2023-04-25T11:53:41;12.50;94.10
13998;DHT22;7074;51.508;7.018;2023-04-25T11:56:09;12.40;94.20
13998;DHT22;7074;51.508;7.018;2023-04-25T11:58:57;11.70;95.00
13998;DHT22;7074;51.508;7.018;2023-04-25T12:01:28;11.60;96.00
13998;DHT22;7074;51.508;7.018;2023-04-25T12:03:56;11.70;95.60
13998;DHT22;7074;51.508;7.018;2023-04-25T12:06:26;11.80;95.60
13998;DHT22;7074;51.508;7.018;2023-04-25T12:09:02;11.80;95.70
13998;DHT22;7074;51.508;7.018;2023-04-25T12:11:30;12.00;96.30
13998;DHT22;7074;51.508;7.018;2023-04-25T12:14:03;12.20;95.60
13998;DHT22;7074;51.508;7.018;2023-04-25T12:16:40;12.30;95.10
13998;DHT22;7074;51.508;7.018;2023-04-25T12:19:08;12.40;93.90
13998;DHT22;7074;51.508;7.018;2023-04-25T12:21:35;12.70;94.60
13998;DHT22;7074;51.508;7.018;2023-04-25T12:24:11;12.90;94.30
13998;DHT22;7074;51.508;7.018;2023-04-25T12:26:50;13.10;92.00
13998;DHT22;7074;51.508;7.018;2023-04-25T12:29:20;13.50;89.20
13998;DHT22;7074;51.508;7.018;2023-04-25T12:31:49;13.60;93.30
13998;DHT22;7074;51.508;7.018;2023-04-25T12:34:17;13.90;88.20
13998;DHT22;7074;51.508;7.018;2023-04-25T12:36:44;13.90;85.80
13998;DHT22;7074;51.508;7.018;2023-04-25T12:39:15;13.40;89.00
13998;DHT22;7074;51.508;7.018;2023-04-25T12:41:43;13.40;91.00
13998;DHT22;7074;51.508;7.018;2023-04-25T12:44:26;13.10;90.90
13998;DHT22;7074;51.508;7.018;2023-04-25T12:46:53;12.30;93.30
13998;DHT22;7074;51.508;7.018;2023-04-25T12:49:20;12.40;95.90
13998;DHT22;7074;51.508;7.018;2023-04-25T12:51:48;12.30;98.20
13998;DHT22;7074;51.508;7.018;2023-04-25T12:54:15;12.20;99.70
13998;DHT22;7074;51.508;7.018;2023-04-25T12:56:42;11.90;99.90
13998;DHT22;7074;51.508;7.018;2023-04-25T12:59:09;12.20;99.90
13998;DHT22;7074;51.508;7.018;2023-04-25T13:01:38;12.20;99.90
13998;DHT22;7074;51.508;7.018;2023-04-25T13:04:05;12.40;99.90
13998;DHT22;7074;51.508;7.018;2023-04-25T13:06:32;12.40;99.90
13998;DHT22;7074;51.508;7.018;2023-04-25T13:08:59;12.40;99.90
13998;DHT22;7074;51.508;7.018;2023-04-25T13:11:27;12.20;99.90
13998;DHT22;7074;51.508;7.018;2023-04-25T13:13:55;12.00;99.90
13998;DHT22;7074;51.508;7.018;2023-04-25T13:16:22;12.00;99.90
13998;DHT22;7074;51.508;7.018;2023-04-25T13:18:51;11.90;99.90
13998;DHT22;7074;51.508;7.018;2023-04-25T13:21:18;11.80;99.90
13998;DHT22;7074;51.508;7.018;2023-04-25T13:23:45;11.80;99.90
13998;DHT22;7074;51.508;7.018;2023-04-25T13:26:13;11.70;99.90
13998;DHT22;7074;51.508;7.018;2023-04-25T13:28:40;11.60;99.90
13998;DHT22;7074;51.508;7.018;2023-04-25T13:31:07;11.60;99.90
13998;DHT22;7074;51.508;7.018;2023-04-25T13:33:34;11.80;99.90
13998;DHT22;7074;51.508;7.018;2023-04-25T13:36:03;12.10;99.90
13998;DHT22;7074;51.508;7.018;2023-04-25T13:38:31;12.10;99.70
13998;DHT22;7074;51.508;7.018;2023-04-25T13:40:58;12.20;99.90
13998;DHT22;7074;51.508;7.018;2023-04-25T13:43:26;12.40;99.60
13998;DHT22;7074;51.508;7.018;2023-04-25T13:45:53;12.30;98.70
13998;DHT22;7074;51.508;7.018;2023-04-25T13:48:20;12.50;99.10
13998;DHT22;7074;51.508;7.018;2023-04-25T13:50:48;12.70;94.40
13998;DHT22;7074;51.508;7.018;2023-04-25T13:53:16;12.80;94.30
13998;DHT22;7074;51.508;7.018;2023-04-25T13:55:43;13.00;93.20
13998;DHT22;7074;51.508;7.018;2023-04-25T13:58:11;13.30;95.20
13998;DHT22;7074;51.508;7.018;2023-04-25T14:00:39;13.30;90.80
13998;DHT22;7074;51.508;7.018;2023-04-25T14:03:09;13.30;85.20
13998;DHT22;7074;51.508;7.018;2023-04-25T14:05:36;13.20;81.10
13998;DHT22;7074;51.508;7.018;2023-04-25T14:08:05;13.50;84.00
13998;DHT22;7074;51.508;7.018;2023-04-25T14:10:35;13.60;86.00
13998;DHT22;7074;51.508;7.018;2023-04-25T14:13:02;13.60;82.10
13998;DHT22;7074;51.508;7.018;2023-04-25T14:15:30;13.80;78.00
13998;DHT22;7074;51.508;7.018;2023-04-25T14:18:00;14.10;78.00
13998;DHT22;7074;51.508;7.018;2023-04-25T14:20:27;14.30;74.00
13998;DHT22;7074;51.508;7.018;2023-04-25T14:22:54;13.90;70.60
13998;DHT22;7074;51.508;7.018;2023-04-25T14:25:23;14.10;71.70
13998;DHT22;7074;51.508;7.018;2023-04-25T14:27:53;14.10;69.70
13998;DHT22;7074;51.508;7.018;2023-04-25T14:30:20;14.00;70.80
13998;DHT22;7074;51.508;7.018;2023-04-25T14:32:49;14.20;68.30
13998;DHT22;7074;51.508;7.018;2023-04-25T14:35:16;14.30;67.20
13998;DHT22;7074;51.508;7.018;2023-04-25T14:37:43;13.80;63.90
13998;DHT22;7074;51.508;7.018;2023-04-25T14:40:11;13.60;66.40
13998;DHT22;7074;51.508;7.018;2023-04-25T14:42:39;13.40;67.80
13998;DHT22;7074;51.508;7.018;2023-04-25T14:45:09;13.30;70.10
13998;DHT22;7074;51.508;7.018;2023-04-25T14:47:36;13.30;73.60
13998;DHT22;7074;51.508;7.018;2023-04-25T14:50:05;13.00;82.40
13998;DHT22;7074;51.508;7.018;2023-04-25T14:52:32;12.80;88.40
13998;DHT22;7074;51.508;7.018;2023-04-25T14:54:59;12.80;92.00
13998;DHT22;7074;51.508;7.018;2023-04-25T14:57:30;12.80;93.60
13998;DHT22;7074;51.508;7.018;2023-04-25T14:59:57;12.80;94.70
13998;DHT22;7074;51.508;7.018;2023-04-25T15:02:26;12.90;95.40
13998;DHT22;7074;51.508;7.018;2023-04-25T15:04:53;13.10;94.20
13998;DHT22;7074;51.508;7.018;2023-04-25T15:07:21;12.90;93.30
13998;DHT22;7074;51.508;7.018;2023-04-25T15:09:49;13.10;94.40
13998;DHT22;7074;51.508;7.018;2023-04-25T15:12:18;13.30;92.70
13998;DHT22;7074;51.508;7.018;2023-04-25T15:14:46;13.20;92.20
13998;DHT22;7074;51.508;7.018;2023-04-25T15:17:13;13.80;92.30
13998;DHT22;7074;51.508;7.018;2023-04-25T15:19:42;14.10;90.10
13998;DHT22;7074;51.508;7.018;2023-04-25T15:22:09;14.40;90.40
13998;DHT22;7074;51.508;7.018;2023-04-25T15:24:36;14.50;87.30
13998;DHT22;7074;51.508;7.018;2023-04-25T15:27:03;14.80;86.30
13998;DHT22;7074;51.508;7.018;2023-04-25T15:29:31;14.80;82.60
13998;DHT22;7074;51.508;7.018;2023-04-25T15:31:59;14.70;80.10
13998;DHT22;7074;51.508;7.018;2023-04-25T15:34:26;14.80;74.50
13998;DHT22;7074;51.508;7.018;2023-04-25T15:36:55;14.90;75.10
13998;DHT22;7074;51.508;7.018;2023-04-25T15:39:23;15.10;75.40
13998;DHT22;7074;51.508;7.018;2023-04-25T15:41:50;15.10;74.40
13998;DHT22;7074;51.508;7.018;2023-04-25T15:44:18;14.90;71.40
13998;DHT22;7074;51.508;7.018;2023-04-25T15:46:45;14.80;69.50
13998;DHT22;7074;51.508;7.018;2023-04-25T15:49:12;14.60;71.80
13998;DHT22;7074;51.508;7.018;2023-04-25T15:51:39;14.40;72.90
13998;DHT22;7074;51.508;7.018;2023-04-25T15:54:07;14.30;74.40
13998;DHT22;7074;51.508;7.018;2023-04-25T15:56:35;14.30;73.80
13998;DHT22;7074;51.508;7.018;2023-04-25T15:59:02;14.10;70.50
13998;DHT22;7074;51.508;7.018;2023-04-25T16:01:30;14.00;69.60
13998;DHT22;7074;51.508;7.018;2023-04-25T16:03:58;13.80;70.40
13998;DHT22;7074;51.508;7.018;2023-04-25T16:06:25;13.60;72.10
13998;DHT22;7074;51.508;7.018;2023-04-25T16:08:53;13.50;73.50
13998;DHT22;7074;51.508;7.018;2023-04-25T16:11:23;13.50;73.90
13998;DHT22;7074;51.508;7.018;2023-04-25T16:13:50;13.40;75.10
13998;DHT22;7074;51.508;7.018;2023-04-25T16:16:17;13.40;75.50
13998;DHT22;7074;51.508;7.018;2023-04-25T16:18:44;13.20;75.00
13998;DHT22;7074;51.508;7.018;2023-04-25T16:21:11;13.30;76.10
13998;DHT22;7074;51.508;7.018;2023-04-25T16:23:41;13.10;75.70
13998;DHT22;7074;51.508;7.018;2023-04-25T16:26:09;13.30;79.00
13998;DHT22;7074;51.508;7.018;2023-04-25T16:28:40;13.40;75.40
13998;DHT22;7074;51.508;7.018;2023-04-25T16:31:07;13.30;73.60
13998;DHT22;7074;51.508;7.018;2023-04-25T16:33:34;13.10;73.40
13998;DHT22;7074;51.508;7.018;2023-04-25T16:36:01;13.10;75.70
13998;DHT22;7074;51.508;7.018;2023-04-25T16:38:28;12.90;79.00
13998;DHT22;7074;51.508;7.018;2023-04-25T16:40:56;12.90;81.20
13998;DHT22;7074;51.508;7.018;2023-04-25T16:43:23;12.70;83.70
13998;DHT22;7074;51.508;7.018;2023-04-25T16:45:51;12.70;85.60
13998;DHT22;7074;51.508;7.018;2023-04-25T16:48:19;12.70;86.20
13998;DHT22;7074;51.508;7.018;2023-04-25T16:50:49;12.70;88.10